sensor_id;sensor_type;location;lat;lon;timestamp;P1;durP1;ratioP1;P2;durP2;ratioP2
68457;SDS011;65384;52.016;5.428;2022-12-18T00:01:44;61.35;;;16.48;;
68457;SDS011;65384;52.016;5.428;2022-12-18T00:04:18;53.42;;;14.70;;
68457;SDS011;65384;52.016;5.428;2022-12-18T00:06:46;54.70;;;14.80;;
68457;SDS011;65384;52.016;5.428;2022-12-18T00:09:12;52.20;;;16.10;;
68457;SDS011;65384;52.016;5.428;2022-12-18T00:11:37;57.13;;;16.55;;
68457;SDS011;65384;52.016;5.428;2022-12-18T00:14:02;54.42;;;16.08;;
68457;SDS011;65384;52.016;5.428;2022-12-18T00:16:28;53.70;;;14.57;;
68457;SDS011;65384;52.016;5.428;2022-12-18T00:18:55;48.90;;;15.18;;
68457;SDS011;65384;52.016;5.428;2022-12-18T00:21:22;40.00;;;12.73;;
68457;SDS011;65384;52.016;5.428;2022-12-18T00:23:48;46.47;;;13.55;;
68457;SDS011;65384;52.016;5.428;2022-12-18T00:26:16;38.67;;;13.63;;
68457;SDS011;65384;52.016;5.428;2022-12-18T00:28:43;54.67;;;15.52;;
68457;SDS011;65384;52.016;5.428;2022-12-18T00:31:10;48.05;;;13.93;;
68457;SDS011;65384;52.016;5.428;2022-12-18T00:33:37;52.28;;;15.95;;
68457;SDS011;65384;52.016;5.428;2022-12-18T00:36:03;47.83;;;14.52;;
68457;SDS011;65384;52.016;5.428;2022-12-18T00:38:34;57.45;;;16.85;;
68457;SDS011;65384;52.016;5.428;2022-12-18T00:41:00;44.88;;;14.10;;
68457;SDS011;65384;52.016;5.428;2022-12-18T00:43:26;48.28;;;15.25;;
68457;SDS011;65384;52.016;5.428;2022-12-18T00:45:52;54.65;;;15.75;;
68457;SDS011;65384;52.016;5.428;2022-12-18T00:48:17;47.70;;;14.52;;
68457;SDS011;65384;52.016;5.428;2022-12-18T00:50:43;53.10;;;14.57;;
68457;SDS011;65384;52.016;5.428;2022-12-18T00:53:10;33.08;;;11.35;;
68457;SDS011;65384;52.016;5.428;2022-12-18T00:55:36;44.42;;;13.80;;
68457;SDS011;65384;52.016;5.428;2022-12-18T00:58:02;49.63;;;14.50;;
68457;SDS011;65384;52.016;5.428;2022-12-18T01:00:28;59.40;;;16.80;;
68457;SDS011;65384;52.016;5.428;2022-12-18T01:02:53;52.38;;;16.05;;
68457;SDS011;65384;52.016;5.428;2022-12-18T01:05:18;53.30;;;15.30;;
68457;SDS011;65384;52.016;5.428;2022-12-18T01:07:44;52.63;;;15.35;;
68457;SDS011;65384;52.016;5.428;2022-12-18T01:10:09;35.88;;;10.77;;
68457;SDS011;65384;52.016;5.428;2022-12-18T01:12:37;45.20;;;14.23;;
68457;SDS011;65384;52.016;5.428;2022-12-18T01:15:03;55.13;;;15.70;;
68457;SDS011;65384;52.016;5.428;2022-12-18T01:17:29;38.88;;;10.95;;
68457;SDS011;65384;52.016;5.428;2022-12-18T01:19:54;47.45;;;14.65;;
68457;SDS011;65384;52.016;5.428;2022-12-18T01:22:19;50.42;;;14.35;;
68457;SDS011;65384;52.016;5.428;2022-12-18T01:24:45;49.95;;;14.73;;
68457;SDS011;65384;52.016;5.428;2022-12-18T01:27:10;34.35;;;12.10;;
68457;SDS011;65384;52.016;5.428;2022-12-18T01:29:35;43.00;;;13.20;;
68457;SDS011;65384;52.016;5.428;2022-12-18T01:32:01;38.47;;;13.18;;
68457;SDS011;65384;52.016;5.428;2022-12-18T01:34:26;42.97;;;13.68;;
68457;SDS011;65384;52.016;5.428;2022-12-18T01:36:51;48.60;;;14.30;;
68457;SDS011;65384;52.016;5.428;2022-12-18T01:39:17;41.15;;;13.57;;
68457;SDS011;65384;52.016;5.428;2022-12-18T01:41:43;48.85;;;15.95;;
68457;SDS011;65384;52.016;5.428;2022-12-18T01:47:22;40.20;;;13.48;;
68457;SDS011;65384;52.016;5.428;2022-12-18T01:49:51;48.65;;;14.05;;
68457;SDS011;65384;52.016;5.428;2022-12-18T01:52:17;44.22;;;14.45;;
68457;SDS011;65384;52.016;5.428;2022-12-18T01:54:44;50.10;;;15.65;;
68457;SDS011;65384;52.016;5.428;2022-12-18T01:57:10;54.80;;;15.65;;
68457;SDS011;65384;52.016;5.428;2022-12-18T01:59:36;48.78;;;15.52;;
68457;SDS011;65384;52.016;5.428;2022-12-18T02:02:02;57.45;;;16.25;;
68457;SDS011;65384;52.016;5.428;2022-12-18T02:04:27;53.15;;;15.27;;
68457;SDS011;65384;52.016;5.428;2022-12-18T02:06:59;45.30;;;14.38;;
68457;SDS011;65384;52.016;5.428;2022-12-18T02:09:42;45.72;;;14.48;;
68457;SDS011;65384;52.016;5.428;2022-12-18T02:12:19;51.30;;;15.70;;
68457;SDS011;65384;52.016;5.428;2022-12-18T02:14:49;46.65;;;14.65;;
68457;SDS011;65384;52.016;5.428;2022-12-18T02:17:36;43.30;;;13.52;;
68457;SDS011;65384;52.016;5.428;2022-12-18T02:25:39;42.42;;;14.98;;
68457;SDS011;65384;52.016;5.428;2022-12-18T02:28:25;39.55;;;13.85;;
68457;SDS011;65384;52.016;5.428;2022-12-18T02:30:52;46.03;;;14.88;;
68457;SDS011;65384;52.016;5.428;2022-12-18T02:33:19;40.08;;;13.68;;
68457;SDS011;65384;52.016;5.428;2022-12-18T02:35:46;43.88;;;12.65;;
68457;SDS011;65384;52.016;5.428;2022-12-18T02:38:12;40.17;;;14.27;;
68457;SDS011;65384;52.016;5.428;2022-12-18T02:40:37;41.85;;;14.15;;
68457;SDS011;65384;52.016;5.428;2022-12-18T02:43:07;45.70;;;14.38;;
68457;SDS011;65384;52.016;5.428;2022-12-18T02:45:34;41.97;;;14.80;;
68457;SDS011;65384;52.016;5.428;2022-12-18T02:47:59;43.15;;;13.38;;
68457;SDS011;65384;52.016;5.428;2022-12-18T02:50:45;42.47;;;12.98;;
68457;SDS011;65384;52.016;5.428;2022-12-18T02:53:41;41.22;;;12.95;;
68457;SDS011;65384;52.016;5.428;2022-12-18T02:56:11;41.45;;;13.48;;
68457;SDS011;65384;52.016;5.428;2022-12-18T03:01:51;36.65;;;12.57;;
68457;SDS011;65384;52.016;5.428;2022-12-18T03:06:54;38.55;;;12.75;;
68457;SDS011;65384;52.016;5.428;2022-12-18T03:09:21;38.33;;;13.45;;
68457;SDS011;65384;52.016;5.428;2022-12-18T03:11:55;30.02;;;11.38;;
68457;SDS011;65384;52.016;5.428;2022-12-18T03:14:41;33.35;;;12.20;;
68457;SDS011;65384;52.016;5.428;2022-12-18T03:17:07;37.75;;;12.45;;
68457;SDS011;65384;52.016;5.428;2022-12-18T03:19:35;35.42;;;12.32;;
68457;SDS011;65384;52.016;5.428;2022-12-18T03:22:04;35.42;;;12.95;;
68457;SDS011;65384;52.016;5.428;2022-12-18T03:24:31;34.70;;;13.52;;
68457;SDS011;65384;52.016;5.428;2022-12-18T03:27:00;35.00;;;12.30;;
68457;SDS011;65384;52.016;5.428;2022-12-18T03:29:28;36.42;;;12.95;;
68457;SDS011;65384;52.016;5.428;2022-12-18T03:32:14;29.40;;;10.40;;
68457;SDS011;65384;52.016;5.428;2022-12-18T03:34:42;36.83;;;12.40;;
68457;SDS011;65384;52.016;5.428;2022-12-18T03:37:08;36.10;;;12.63;;
68457;SDS011;65384;52.016;5.428;2022-12-18T03:39:35;35.20;;;12.43;;
68457;SDS011;65384;52.016;5.428;2022-12-18T03:42:04;34.88;;;12.80;;
68457;SDS011;65384;52.016;5.428;2022-12-18T03:44:37;34.17;;;10.82;;
68457;SDS011;65384;52.016;5.428;2022-12-18T03:47:26;35.13;;;11.77;;
68457;SDS011;65384;52.016;5.428;2022-12-18T03:49:57;32.03;;;11.80;;
68457;SDS011;65384;52.016;5.428;2022-12-18T03:52:54;34.25;;;11.98;;
68457;SDS011;65384;52.016;5.428;2022-12-18T03:55:22;24.95;;;9.98;;
68457;SDS011;65384;52.016;5.428;2022-12-18T03:57:50;33.28;;;11.35;;
68457;SDS011;65384;52.016;5.428;2022-12-18T04:00:16;31.33;;;11.52;;
68457;SDS011;65384;52.016;5.428;2022-12-18T04:02:43;21.17;;;9.23;;
68457;SDS011;65384;52.016;5.428;2022-12-18T04:05:10;31.85;;;11.13;;
68457;SDS011;65384;52.016;5.428;2022-12-18T04:07:36;29.58;;;10.85;;
68457;SDS011;65384;52.016;5.428;2022-12-18T04:10:03;25.58;;;10.65;;
68457;SDS011;65384;52.016;5.428;2022-12-18T04:12:30;32.28;;;11.23;;
68457;SDS011;65384;52.016;5.428;2022-12-18T04:14:55;32.55;;;10.95;;
68457;SDS011;65384;52.016;5.428;2022-12-18T04:17:21;28.08;;;10.55;;
68457;SDS011;65384;52.016;5.428;2022-12-18T04:19:46;31.67;;;11.60;;
68457;SDS011;65384;52.016;5.428;2022-12-18T04:22:11;36.58;;;11.77;;
68457;SDS011;65384;52.016;5.428;2022-12-18T04:24:37;25.90;;;10.95;;
68457;SDS011;65384;52.016;5.428;2022-12-18T04:27:03;29.65;;;11.45;;
68457;SDS011;65384;52.016;5.428;2022-12-18T04:29:28;27.52;;;10.57;;
68457;SDS011;65384;52.016;5.428;2022-12-18T04:31:53;22.83;;;8.63;;
68457;SDS011;65384;52.016;5.428;2022-12-18T04:34:19;27.95;;;10.35;;
68457;SDS011;65384;52.016;5.428;2022-12-18T04:36:44;26.30;;;9.63;;
68457;SDS011;65384;52.016;5.428;2022-12-18T04:39:10;31.35;;;10.35;;
68457;SDS011;65384;52.016;5.428;2022-12-18T04:41:35;28.88;;;9.73;;
68457;SDS011;65384;52.016;5.428;2022-12-18T04:44:01;28.73;;;9.75;;
68457;SDS011;65384;52.016;5.428;2022-12-18T04:46:26;24.95;;;9.30;;
68457;SDS011;65384;52.016;5.428;2022-12-18T04:48:51;26.85;;;9.98;;
68457;SDS011;65384;52.016;5.428;2022-12-18T04:51:17;23.58;;;9.93;;
68457;SDS011;65384;52.016;5.428;2022-12-18T04:53:42;31.25;;;9.40;;
68457;SDS011;65384;52.016;5.428;2022-12-18T04:56:09;25.83;;;9.48;;
68457;SDS011;65384;52.016;5.428;2022-12-18T04:58:36;23.52;;;8.60;;
68457;SDS011;65384;52.016;5.428;2022-12-18T05:01:02;26.50;;;9.88;;
68457;SDS011;65384;52.016;5.428;2022-12-18T05:03:28;22.15;;;8.15;;
68457;SDS011;65384;52.016;5.428;2022-12-18T05:05:53;23.05;;;8.48;;
68457;SDS011;65384;52.016;5.428;2022-12-18T05:08:18;26.60;;;10.07;;
68457;SDS011;65384;52.016;5.428;2022-12-18T05:10:44;24.38;;;8.38;;
68457;SDS011;65384;52.016;5.428;2022-12-18T05:13:09;34.13;;;10.85;;
68457;SDS011;65384;52.016;5.428;2022-12-18T05:15:35;28.65;;;10.18;;
68457;SDS011;65384;52.016;5.428;2022-12-18T05:18:00;27.20;;;9.60;;
68457;SDS011;65384;52.016;5.428;2022-12-18T05:20:26;22.92;;;8.60;;
68457;SDS011;65384;52.016;5.428;2022-12-18T05:22:52;26.85;;;9.60;;
68457;SDS011;65384;52.016;5.428;2022-12-18T05:25:18;25.55;;;9.35;;
68457;SDS011;65384;52.016;5.428;2022-12-18T05:27:44;21.05;;;8.70;;
68457;SDS011;65384;52.016;5.428;2022-12-18T05:30:10;22.60;;;9.55;;
68457;SDS011;65384;52.016;5.428;2022-12-18T05:32:35;26.88;;;10.35;;
68457;SDS011;65384;52.016;5.428;2022-12-18T05:35:01;25.38;;;9.93;;
68457;SDS011;65384;52.016;5.428;2022-12-18T05:37:26;18.20;;;6.65;;
68457;SDS011;65384;52.016;5.428;2022-12-18T05:39:52;27.83;;;9.93;;
68457;SDS011;65384;52.016;5.428;2022-12-18T05:42:17;28.15;;;9.98;;
68457;SDS011;65384;52.016;5.428;2022-12-18T05:44:43;27.50;;;9.88;;
68457;SDS011;65384;52.016;5.428;2022-12-18T05:47:08;29.42;;;9.63;;
68457;SDS011;65384;52.016;5.428;2022-12-18T05:49:34;24.73;;;8.73;;
68457;SDS011;65384;52.016;5.428;2022-12-18T05:51:59;26.65;;;9.95;;
68457;SDS011;65384;52.016;5.428;2022-12-18T05:54:26;30.10;;;9.40;;
68457;SDS011;65384;52.016;5.428;2022-12-18T05:56:52;21.98;;;8.27;;
68457;SDS011;65384;52.016;5.428;2022-12-18T05:59:17;26.58;;;8.32;;
68457;SDS011;65384;52.016;5.428;2022-12-18T06:01:43;25.10;;;8.82;;
68457;SDS011;65384;52.016;5.428;2022-12-18T06:04:08;20.08;;;8.70;;
68457;SDS011;65384;52.016;5.428;2022-12-18T06:06:33;24.10;;;8.13;;
68457;SDS011;65384;52.016;5.428;2022-12-18T06:08:59;17.10;;;7.53;;
68457;SDS011;65384;52.016;5.428;2022-12-18T06:11:26;23.92;;;9.35;;
68457;SDS011;65384;52.016;5.428;2022-12-18T06:13:55;23.40;;;8.98;;
68457;SDS011;65384;52.016;5.428;2022-12-18T06:16:21;25.20;;;8.00;;
68457;SDS011;65384;52.016;5.428;2022-12-18T06:18:46;21.63;;;8.07;;
68457;SDS011;65384;52.016;5.428;2022-12-18T06:21:12;20.17;;;8.57;;
68457;SDS011;65384;52.016;5.428;2022-12-18T06:23:37;19.27;;;7.38;;
68457;SDS011;65384;52.016;5.428;2022-12-18T06:26:03;22.60;;;8.05;;
68457;SDS011;65384;52.016;5.428;2022-12-18T06:28:33;19.83;;;7.72;;
68457;SDS011;65384;52.016;5.428;2022-12-18T06:30:58;24.40;;;8.57;;
68457;SDS011;65384;52.016;5.428;2022-12-18T06:33:26;17.80;;;7.22;;
68457;SDS011;65384;52.016;5.428;2022-12-18T06:35:52;21.23;;;8.35;;
68457;SDS011;65384;52.016;5.428;2022-12-18T06:38:17;19.42;;;8.38;;
68457;SDS011;65384;52.016;5.428;2022-12-18T06:40:42;20.85;;;7.97;;
68457;SDS011;65384;52.016;5.428;2022-12-18T06:43:08;24.30;;;8.65;;
68457;SDS011;65384;52.016;5.428;2022-12-18T06:45:33;20.52;;;8.40;;
68457;SDS011;65384;52.016;5.428;2022-12-18T06:47:59;23.52;;;8.85;;
68457;SDS011;65384;52.016;5.428;2022-12-18T06:50:24;20.33;;;8.15;;
68457;SDS011;65384;52.016;5.428;2022-12-18T06:52:49;23.33;;;8.95;;
68457;SDS011;65384;52.016;5.428;2022-12-18T06:55:15;23.05;;;9.02;;
68457;SDS011;65384;52.016;5.428;2022-12-18T06:57:40;18.83;;;7.60;;
68457;SDS011;65384;52.016;5.428;2022-12-18T07:00:06;23.02;;;8.25;;
68457;SDS011;65384;52.016;5.428;2022-12-18T07:02:32;21.48;;;8.50;;
68457;SDS011;65384;52.016;5.428;2022-12-18T07:04:57;19.90;;;8.18;;
68457;SDS011;65384;52.016;5.428;2022-12-18T07:07:23;23.88;;;8.10;;
68457;SDS011;65384;52.016;5.428;2022-12-18T07:09:51;20.38;;;7.78;;
68457;SDS011;65384;52.016;5.428;2022-12-18T07:12:17;22.85;;;8.18;;
68457;SDS011;65384;52.016;5.428;2022-12-18T07:14:43;20.70;;;7.50;;
68457;SDS011;65384;52.016;5.428;2022-12-18T07:17:08;19.27;;;8.15;;
68457;SDS011;65384;52.016;5.428;2022-12-18T07:19:34;21.50;;;8.65;;
68457;SDS011;65384;52.016;5.428;2022-12-18T07:21:59;20.10;;;8.68;;
68457;SDS011;65384;52.016;5.428;2022-12-18T07:24:24;18.80;;;8.30;;
68457;SDS011;65384;52.016;5.428;2022-12-18T07:26:50;21.52;;;8.93;;
68457;SDS011;65384;52.016;5.428;2022-12-18T07:29:15;22.50;;;9.23;;
68457;SDS011;65384;52.016;5.428;2022-12-18T07:31:41;12.30;;;4.75;;
68457;SDS011;65384;52.016;5.428;2022-12-18T07:34:09;19.33;;;8.27;;
68457;SDS011;65384;52.016;5.428;2022-12-18T07:36:35;22.48;;;8.88;;
68457;SDS011;65384;52.016;5.428;2022-12-18T07:39:01;21.50;;;8.60;;
68457;SDS011;65384;52.016;5.428;2022-12-18T07:41:26;19.67;;;7.78;;
68457;SDS011;65384;52.016;5.428;2022-12-18T07:43:51;22.77;;;7.63;;
68457;SDS011;65384;52.016;5.428;2022-12-18T07:46:17;21.58;;;8.57;;
68457;SDS011;65384;52.016;5.428;2022-12-18T07:48:43;19.73;;;8.02;;
68457;SDS011;65384;52.016;5.428;2022-12-18T07:51:08;20.23;;;9.13;;
68457;SDS011;65384;52.016;5.428;2022-12-18T07:53:37;22.83;;;9.05;;
68457;SDS011;65384;52.016;5.428;2022-12-18T07:56:04;19.90;;;8.15;;
68457;SDS011;65384;52.016;5.428;2022-12-18T07:58:31;20.33;;;7.63;;
68457;SDS011;65384;52.016;5.428;2022-12-18T08:01:04;20.27;;;8.77;;
68457;SDS011;65384;52.016;5.428;2022-12-18T08:03:31;26.90;;;9.75;;
68457;SDS011;65384;52.016;5.428;2022-12-18T08:06:00;20.38;;;7.55;;
68457;SDS011;65384;52.016;5.428;2022-12-18T08:08:26;21.88;;;8.63;;
68457;SDS011;65384;52.016;5.428;2022-12-18T08:10:51;21.10;;;8.32;;
68457;SDS011;65384;52.016;5.428;2022-12-18T08:13:17;22.35;;;9.10;;
68457;SDS011;65384;52.016;5.428;2022-12-18T08:15:42;19.88;;;8.00;;
68457;SDS011;65384;52.016;5.428;2022-12-18T08:18:07;20.90;;;8.30;;
68457;SDS011;65384;52.016;5.428;2022-12-18T08:20:33;19.65;;;8.50;;
68457;SDS011;65384;52.016;5.428;2022-12-18T08:22:58;18.73;;;7.75;;
68457;SDS011;65384;52.016;5.428;2022-12-18T08:25:23;23.38;;;9.15;;
68457;SDS011;65384;52.016;5.428;2022-12-18T08:27:49;22.75;;;8.13;;
68457;SDS011;65384;52.016;5.428;2022-12-18T08:30:14;25.38;;;8.52;;
68457;SDS011;65384;52.016;5.428;2022-12-18T08:32:39;21.60;;;7.85;;
68457;SDS011;65384;52.016;5.428;2022-12-18T08:35:05;18.88;;;6.80;;
68457;SDS011;65384;52.016;5.428;2022-12-18T08:37:31;21.15;;;9.00;;
68457;SDS011;65384;52.016;5.428;2022-12-18T08:39:56;17.40;;;7.45;;
68457;SDS011;65384;52.016;5.428;2022-12-18T08:42:21;23.23;;;8.68;;
68457;SDS011;65384;52.016;5.428;2022-12-18T08:45:05;20.70;;;7.88;;
68457;SDS011;65384;52.016;5.428;2022-12-18T08:47:31;23.25;;;8.85;;
68457;SDS011;65384;52.016;5.428;2022-12-18T08:49:56;20.05;;;7.88;;
68457;SDS011;65384;52.016;5.428;2022-12-18T08:52:22;26.30;;;9.27;;
68457;SDS011;65384;52.016;5.428;2022-12-18T08:54:47;18.88;;;8.07;;
68457;SDS011;65384;52.016;5.428;2022-12-18T08:57:12;19.17;;;8.00;;
68457;SDS011;65384;52.016;5.428;2022-12-18T08:59:38;16.90;;;7.65;;
68457;SDS011;65384;52.016;5.428;2022-12-18T09:02:03;23.35;;;8.82;;
68457;SDS011;65384;52.016;5.428;2022-12-18T09:04:28;15.98;;;7.15;;
68457;SDS011;65384;52.016;5.428;2022-12-18T09:06:54;12.32;;;5.53;;
68457;SDS011;65384;52.016;5.428;2022-12-18T09:09:19;20.88;;;8.40;;
68457;SDS011;65384;52.016;5.428;2022-12-18T09:11:44;21.98;;;8.90;;
68457;SDS011;65384;52.016;5.428;2022-12-18T09:14:10;20.23;;;8.50;;
68457;SDS011;65384;52.016;5.428;2022-12-18T09:16:35;21.50;;;8.68;;
68457;SDS011;65384;52.016;5.428;2022-12-18T09:19:02;21.13;;;8.75;;
68457;SDS011;65384;52.016;5.428;2022-12-18T09:21:30;20.55;;;8.20;;
68457;SDS011;65384;52.016;5.428;2022-12-18T09:23:56;20.38;;;8.27;;
68457;SDS011;65384;52.016;5.428;2022-12-18T09:26:22;20.90;;;8.18;;
68457;SDS011;65384;52.016;5.428;2022-12-18T09:28:49;17.58;;;7.57;;
68457;SDS011;65384;52.016;5.428;2022-12-18T09:31:15;20.60;;;8.55;;
68457;SDS011;65384;52.016;5.428;2022-12-18T09:33:41;25.48;;;9.05;;
68457;SDS011;65384;52.016;5.428;2022-12-18T09:36:07;22.38;;;8.80;;
68457;SDS011;65384;52.016;5.428;2022-12-18T09:38:34;19.27;;;7.70;;
68457;SDS011;65384;52.016;5.428;2022-12-18T09:41:05;20.15;;;8.48;;
68457;SDS011;65384;52.016;5.428;2022-12-18T09:43:49;17.88;;;6.85;;
68457;SDS011;65384;52.016;5.428;2022-12-18T09:46:17;18.95;;;8.18;;
68457;SDS011;65384;52.016;5.428;2022-12-18T09:48:46;17.88;;;7.63;;
68457;SDS011;65384;52.016;5.428;2022-12-18T09:51:14;22.70;;;8.20;;
68457;SDS011;65384;52.016;5.428;2022-12-18T09:53:43;19.67;;;7.32;;
68457;SDS011;65384;52.016;5.428;2022-12-18T09:56:12;17.27;;;7.20;;
68457;SDS011;65384;52.016;5.428;2022-12-18T09:58:44;17.63;;;7.20;;
68457;SDS011;65384;52.016;5.428;2022-12-18T10:01:18;15.52;;;6.80;;
68457;SDS011;65384;52.016;5.428;2022-12-18T10:03:48;20.08;;;7.80;;
68457;SDS011;65384;52.016;5.428;2022-12-18T10:06:15;17.13;;;7.13;;
68457;SDS011;65384;52.016;5.428;2022-12-18T10:20:16;16.40;;;7.22;;
68457;SDS011;65384;52.016;5.428;2022-12-18T10:28:08;20.10;;;6.88;;
68457;SDS011;65384;52.016;5.428;2022-12-18T10:30:36;17.08;;;7.18;;
68457;SDS011;65384;52.016;5.428;2022-12-18T10:33:03;22.10;;;8.43;;
68457;SDS011;65384;52.016;5.428;2022-12-18T10:35:28;17.77;;;7.35;;
68457;SDS011;65384;52.016;5.428;2022-12-18T10:40:31;21.45;;;8.13;;
68457;SDS011;65384;52.016;5.428;2022-12-18T10:43:13;17.98;;;7.50;;
68457;SDS011;65384;52.016;5.428;2022-12-18T10:45:40;21.90;;;7.90;;
68457;SDS011;65384;52.016;5.428;2022-12-18T10:48:18;17.63;;;6.90;;
68457;SDS011;65384;52.016;5.428;2022-12-18T10:50:46;18.75;;;7.07;;
68457;SDS011;65384;52.016;5.428;2022-12-18T10:53:13;18.02;;;7.63;;
68457;SDS011;65384;52.016;5.428;2022-12-18T10:55:44;17.23;;;7.43;;
68457;SDS011;65384;52.016;5.428;2022-12-18T10:58:30;17.38;;;7.07;;
68457;SDS011;65384;52.016;5.428;2022-12-18T11:03:46;17.10;;;7.00;;
68457;SDS011;65384;52.016;5.428;2022-12-18T11:06:18;21.45;;;8.15;;
68457;SDS011;65384;52.016;5.428;2022-12-18T11:08:57;17.50;;;7.18;;
68457;SDS011;65384;52.016;5.428;2022-12-18T11:11:23;20.30;;;7.05;;
68457;SDS011;65384;52.016;5.428;2022-12-18T11:16:28;18.83;;;7.57;;
68457;SDS011;65384;52.016;5.428;2022-12-18T11:18:55;17.85;;;7.90;;
68457;SDS011;65384;52.016;5.428;2022-12-18T11:21:40;21.38;;;8.18;;
68457;SDS011;65384;52.016;5.428;2022-12-18T11:24:07;17.77;;;7.35;;
68457;SDS011;65384;52.016;5.428;2022-12-18T11:26:44;10.55;;;5.13;;
68457;SDS011;65384;52.016;5.428;2022-12-18T11:29:10;20.60;;;6.93;;
68457;SDS011;65384;52.016;5.428;2022-12-18T11:31:42;24.10;;;8.77;;
68457;SDS011;65384;52.016;5.428;2022-12-18T11:34:16;17.95;;;7.30;;
68457;SDS011;65384;52.016;5.428;2022-12-18T11:36:47;18.10;;;6.47;;
68457;SDS011;65384;52.016;5.428;2022-12-18T11:39:21;17.98;;;7.60;;
68457;SDS011;65384;52.016;5.428;2022-12-18T11:41:54;18.63;;;7.82;;
68457;SDS011;65384;52.016;5.428;2022-12-18T11:44:38;16.87;;;7.13;;
68457;SDS011;65384;52.016;5.428;2022-12-18T11:47:15;18.05;;;7.32;;
68457;SDS011;65384;52.016;5.428;2022-12-18T11:49:44;14.20;;;6.35;;
68457;SDS011;65384;52.016;5.428;2022-12-18T11:55:10;20.20;;;7.97;;
68457;SDS011;65384;52.016;5.428;2022-12-18T12:05:44;16.15;;;6.85;;
68457;SDS011;65384;52.016;5.428;2022-12-18T12:08:21;21.85;;;7.18;;
68457;SDS011;65384;52.016;5.428;2022-12-18T12:23:53;21.63;;;7.55;;
68457;SDS011;65384;52.016;5.428;2022-12-18T12:26:26;26.60;;;9.23;;
68457;SDS011;65384;52.016;5.428;2022-12-18T12:29:00;23.25;;;7.95;;
68457;SDS011;65384;52.016;5.428;2022-12-18T12:31:37;25.58;;;8.35;;
68457;SDS011;65384;52.016;5.428;2022-12-18T12:34:13;17.25;;;6.28;;
68457;SDS011;65384;52.016;5.428;2022-12-18T12:39:14;22.20;;;8.27;;
68457;SDS011;65384;52.016;5.428;2022-12-18T12:41:43;25.15;;;8.75;;
68457;SDS011;65384;52.016;5.428;2022-12-18T12:44:30;25.17;;;8.18;;
68457;SDS011;65384;52.016;5.428;2022-12-18T12:46:59;23.08;;;8.50;;
68457;SDS011;65384;52.016;5.428;2022-12-18T12:49:27;21.08;;;8.50;;
68457;SDS011;65384;52.016;5.428;2022-12-18T12:52:03;23.33;;;8.90;;
68457;SDS011;65384;52.016;5.428;2022-12-18T12:54:31;22.77;;;8.38;;
68457;SDS011;65384;52.016;5.428;2022-12-18T12:57:02;22.23;;;9.00;;
68457;SDS011;65384;52.016;5.428;2022-12-18T13:02:10;16.30;;;6.80;;
68457;SDS011;65384;52.016;5.428;2022-12-18T13:05:00;23.05;;;8.75;;
68457;SDS011;65384;52.016;5.428;2022-12-18T13:20:50;24.60;;;8.43;;
68457;SDS011;65384;52.016;5.428;2022-12-18T13:23:31;23.15;;;8.43;;
68457;SDS011;65384;52.016;5.428;2022-12-18T13:36:40;19.92;;;7.75;;
68457;SDS011;65384;52.016;5.428;2022-12-18T13:39:21;24.02;;;9.05;;
68457;SDS011;65384;52.016;5.428;2022-12-18T13:41:50;22.75;;;8.48;;
68457;SDS011;65384;52.016;5.428;2022-12-18T13:44:36;24.30;;;9.05;;
68457;SDS011;65384;52.016;5.428;2022-12-18T13:47:04;25.08;;;8.93;;
68457;SDS011;65384;52.016;5.428;2022-12-18T13:52:02;26.58;;;9.25;;
68457;SDS011;65384;52.016;5.428;2022-12-18T13:54:35;22.58;;;8.48;;
68457;SDS011;65384;52.016;5.428;2022-12-18T13:57:03;26.23;;;8.60;;
68457;SDS011;65384;52.016;5.428;2022-12-18T13:59:33;20.20;;;8.50;;
68457;SDS011;65384;52.016;5.428;2022-12-18T14:02:07;21.95;;;8.68;;
68457;SDS011;65384;52.016;5.428;2022-12-18T14:04:38;21.23;;;8.73;;
68457;SDS011;65384;52.016;5.428;2022-12-18T14:07:07;22.05;;;8.15;;
68457;SDS011;65384;52.016;5.428;2022-12-18T14:09:37;21.67;;;8.32;;
68457;SDS011;65384;52.016;5.428;2022-12-18T14:12:05;22.20;;;8.90;;
68457;SDS011;65384;52.016;5.428;2022-12-18T14:14:50;21.65;;;8.20;;
68457;SDS011;65384;52.016;5.428;2022-12-18T14:17:17;22.77;;;7.18;;
68457;SDS011;65384;52.016;5.428;2022-12-18T14:19:46;24.30;;;8.98;;
68457;SDS011;65384;52.016;5.428;2022-12-18T14:25:05;19.60;;;7.80;;
68457;SDS011;65384;52.016;5.428;2022-12-18T14:27:37;20.15;;;7.53;;
68457;SDS011;65384;52.016;5.428;2022-12-18T14:30:18;19.95;;;8.32;;
68457;SDS011;65384;52.016;5.428;2022-12-18T14:32:59;22.88;;;8.75;;
68457;SDS011;65384;52.016;5.428;2022-12-18T14:35:28;20.85;;;8.68;;
68457;SDS011;65384;52.016;5.428;2022-12-18T14:37:59;22.80;;;8.40;;
68457;SDS011;65384;52.016;5.428;2022-12-18T14:40:41;22.52;;;9.00;;
68457;SDS011;65384;52.016;5.428;2022-12-18T14:43:10;26.02;;;9.00;;
68457;SDS011;65384;52.016;5.428;2022-12-18T14:45:37;23.27;;;8.63;;
68457;SDS011;65384;52.016;5.428;2022-12-18T14:50:45;22.83;;;8.82;;
68457;SDS011;65384;52.016;5.428;2022-12-18T14:53:20;25.08;;;8.73;;
68457;SDS011;65384;52.016;5.428;2022-12-18T14:56:01;18.02;;;6.45;;
68457;SDS011;65384;52.016;5.428;2022-12-18T14:58:27;22.23;;;7.72;;
68457;SDS011;65384;52.016;5.428;2022-12-18T15:00:53;24.35;;;8.60;;
68457;SDS011;65384;52.016;5.428;2022-12-18T15:03:19;18.50;;;6.68;;
68457;SDS011;65384;52.016;5.428;2022-12-18T15:05:46;19.50;;;8.40;;
68457;SDS011;65384;52.016;5.428;2022-12-18T15:10:59;22.73;;;8.07;;
68457;SDS011;65384;52.016;5.428;2022-12-18T15:13:24;22.83;;;8.50;;
68457;SDS011;65384;52.016;5.428;2022-12-18T15:15:50;21.92;;;8.30;;
68457;SDS011;65384;52.016;5.428;2022-12-18T15:18:18;19.52;;;8.38;;
68457;SDS011;65384;52.016;5.428;2022-12-18T15:23:31;22.45;;;9.00;;
68457;SDS011;65384;52.016;5.428;2022-12-18T15:26:08;22.25;;;9.35;;
68457;SDS011;65384;52.016;5.428;2022-12-18T15:28:39;21.92;;;8.13;;
68457;SDS011;65384;52.016;5.428;2022-12-18T15:33:37;24.15;;;9.10;;
68457;SDS011;65384;52.016;5.428;2022-12-18T15:36:11;19.90;;;8.65;;
68457;SDS011;65384;52.016;5.428;2022-12-18T15:38:40;25.63;;;9.25;;
68457;SDS011;65384;52.016;5.428;2022-12-18T15:41:11;24.45;;;9.32;;
68457;SDS011;65384;52.016;5.428;2022-12-18T15:43:38;25.70;;;9.27;;
68457;SDS011;65384;52.016;5.428;2022-12-18T15:46:04;27.77;;;10.48;;
68457;SDS011;65384;52.016;5.428;2022-12-18T15:48:36;22.38;;;8.80;;
68457;SDS011;65384;52.016;5.428;2022-12-18T15:51:05;25.67;;;9.25;;
68457;SDS011;65384;52.016;5.428;2022-12-18T15:53:40;25.30;;;9.05;;
68457;SDS011;65384;52.016;5.428;2022-12-18T15:56:09;21.67;;;8.55;;
68457;SDS011;65384;52.016;5.428;2022-12-18T15:58:54;23.25;;;7.80;;
68457;SDS011;65384;52.016;5.428;2022-12-18T16:01:19;22.02;;;8.02;;
68457;SDS011;65384;52.016;5.428;2022-12-18T16:03:45;24.52;;;9.88;;
68457;SDS011;65384;52.016;5.428;2022-12-18T16:06:10;25.17;;;9.50;;
68457;SDS011;65384;52.016;5.428;2022-12-18T16:08:36;18.70;;;7.20;;
68457;SDS011;65384;52.016;5.428;2022-12-18T16:11:01;23.63;;;8.32;;
68457;SDS011;65384;52.016;5.428;2022-12-18T16:13:27;17.90;;;7.85;;
68457;SDS011;65384;52.016;5.428;2022-12-18T16:15:52;18.42;;;7.63;;
68457;SDS011;65384;52.016;5.428;2022-12-18T16:18:17;22.50;;;9.35;;
68457;SDS011;65384;52.016;5.428;2022-12-18T16:20:43;22.30;;;8.55;;
68457;SDS011;65384;52.016;5.428;2022-12-18T16:23:08;27.45;;;10.18;;
68457;SDS011;65384;52.016;5.428;2022-12-18T16:25:33;29.40;;;10.38;;
68457;SDS011;65384;52.016;5.428;2022-12-18T16:27:59;31.00;;;11.25;;